sensor_id;sensor_type;location;lat;lon;timestamp;temperature;humidity
20998;DHT22;10657;51.276;6.390;2023-03-11T00:00:53;1.90;99.90
20998;DHT22;10657;51.276;6.390;2023-03-11T00:03:20;1.90;99.90
20998;DHT22;10657;51.276;6.390;2023-03-11T00:05:49;1.90;99.90
20998;DHT22;10657;51.276;6.390;2023-03-11T00:08:19;1.90;99.90
20998;DHT22;10657;51.276;6.390;2023-03-11T00:10:49;1.90;99.90
20998;DHT22;10657;51.276;6.390;2023-03-11T00:13:16;1.90;99.90
20998;DHT22;10657;51.276;6.390;2023-03-11T00:15:46;2.00;99.90
20998;DHT22;10657;51.276;6.390;2023-03-11T00:18:14;2.00;99.90
20998;DHT22;10657;51.276;6.390;2023-03-11T00:20:42;1.90;99.90
20998;DHT22;10657;51.276;6.390;2023-03-11T00:23:11;2.00;99.90
20998;DHT22;10657;51.276;6.390;2023-03-11T00:25:38;2.00;99.90
20998;DHT22;10657;51.276;6.390;2023-03-11T00:28:05;1.90;99.90
20998;DHT22;10657;51.276;6.390;2023-03-11T00:30:39;2.00;99.90
20998;DHT22;10657;51.276;6.390;2023-03-11T00:33:07;2.00;99.90
20998;DHT22;10657;51.276;6.390;2023-03-11T00:35:34;2.00;99.90
20998;DHT22;10657;51.276;6.390;2023-03-11T00:38:04;2.00;99.90
20998;DHT22;10657;51.276;6.390;2023-03-11T00:40:33;2.00;99.90
20998;DHT22;10657;51.276;6.390;2023-03-11T00:43:01;2.00;99.90
20998;DHT22;10657;51.276;6.390;2023-03-11T00:45:28;2.00;99.90
20998;DHT22;10657;51.276;6.390;2023-03-11T00:47:55;2.00;99.90
20998;DHT22;10657;51.276;6.390;2023-03-11T00:50:25;1.80;99.90
20998;DHT22;10657;51.276;6.390;2023-03-11T00:52:52;1.90;99.90
20998;DHT22;10657;51.276;6.390;2023-03-11T00:55:21;1.80;99.90
20998;DHT22;10657;51.276;6.390;2023-03-11T00:57:53;1.80;99.90
20998;DHT22;10657;51.276;6.390;2023-03-11T01:00:21;1.90;99.90
20998;DHT22;10657;51.276;6.390;2023-03-11T01:02:48;1.80;99.90
20998;DHT22;10657;51.276;6.390;2023-03-11T01:05:18;1.80;99.90
20998;DHT22;10657;51.276;6.390;2023-03-11T01:07:45;1.80;99.90
20998;DHT22;10657;51.276;6.390;2023-03-11T01:10:12;1.80;99.90
20998;DHT22;10657;51.276;6.390;2023-03-11T01:12:38;1.70;99.90
20998;DHT22;10657;51.276;6.390;2023-03-11T01:15:15;1.70;99.90
20998;DHT22;10657;51.276;6.390;2023-03-11T01:17:43;1.60;99.90
20998;DHT22;10657;51.276;6.390;2023-03-11T01:20:10;1.60;99.90
20998;DHT22;10657;51.276;6.390;2023-03-11T01:22:37;1.50;99.90
20998;DHT22;10657;51.276;6.390;2023-03-11T01:25:04;1.50;99.90
20998;DHT22;10657;51.276;6.390;2023-03-11T01:27:31;1.50;99.90
20998;DHT22;10657;51.276;6.390;2023-03-11T01:29:57;1.40;99.90
20998;DHT22;10657;51.276;6.390;2023-03-11T01:32:24;1.50;99.90
20998;DHT22;10657;51.276;6.390;2023-03-11T01:34:50;1.50;99.90
20998;DHT22;10657;51.276;6.390;2023-03-11T01:37:17;1.40;99.90
20998;DHT22;10657;51.276;6.390;2023-03-11T01:39:45;1.40;99.90
20998;DHT22;10657;51.276;6.390;2023-03-11T01:42:12;1.40;99.90
20998;DHT22;10657;51.276;6.390;2023-03-11T01:44:38;1.30;99.90
20998;DHT22;10657;51.276;6.390;2023-03-11T01:49:38;1.20;99.90
20998;DHT22;10657;51.276;6.390;2023-03-11T01:52:07;1.20;99.90
20998;DHT22;10657;51.276;6.390;2023-03-11T01:54:37;1.20;99.90
20998;DHT22;10657;51.276;6.390;2023-03-11T01:57:07;1.10;99.90
20998;DHT22;10657;51.276;6.390;2023-03-11T01:59:41;1.20;99.90
20998;DHT22;10657;51.276;6.390;2023-03-11T02:02:21;1.20;99.90
20998;DHT22;10657;51.276;6.390;2023-03-11T02:04:49;1.10;99.90
20998;DHT22;10657;51.276;6.390;2023-03-11T02:07:16;1.10;99.90
20998;DHT22;10657;51.276;6.390;2023-03-11T02:09:43;1.10;99.90
20998;DHT22;10657;51.276;6.390;2023-03-11T02:12:12;1.10;99.90
20998;DHT22;10657;51.276;6.390;2023-03-11T02:14:43;1.10;99.90
20998;DHT22;10657;51.276;6.390;2023-03-11T02:17:11;1.10;99.90
20998;DHT22;10657;51.276;6.390;2023-03-11T02:22:33;1.10;99.90
20998;DHT22;10657;51.276;6.390;2023-03-11T02:25:47;1.10;99.90
20998;DHT22;10657;51.276;6.390;2023-03-11T02:28:07;1.00;99.90
20998;DHT22;10657;51.276;6.390;2023-03-11T02:30:35;1.10;99.90
20998;DHT22;10657;51.276;6.390;2023-03-11T02:33:04;1.10;99.90
20998;DHT22;10657;51.276;6.390;2023-03-11T02:35:31;1.10;99.90
20998;DHT22;10657;51.276;6.390;2023-03-11T02:37:58;1.20;99.90
20998;DHT22;10657;51.276;6.390;2023-03-11T02:40:35;1.10;99.90
20998;DHT22;10657;51.276;6.390;2023-03-11T02:43:12;1.10;99.90
20998;DHT22;10657;51.276;6.390;2023-03-11T02:45:42;1.00;99.90
20998;DHT22;10657;51.276;6.390;2023-03-11T02:48:09;1.00;99.90
20998;DHT22;10657;51.276;6.390;2023-03-11T02:50:37;1.10;99.90
20998;DHT22;10657;51.276;6.390;2023-03-11T02:53:05;1.10;99.90
20998;DHT22;10657;51.276;6.390;2023-03-11T02:55:33;1.00;99.90
20998;DHT22;10657;51.276;6.390;2023-03-11T02:57:59;1.00;99.90
20998;DHT22;10657;51.276;6.390;2023-03-11T03:00:26;0.90;99.90
20998;DHT22;10657;51.276;6.390;2023-03-11T03:02:53;0.90;99.90
20998;DHT22;10657;51.276;6.390;2023-03-11T03:05:21;1.00;99.90
20998;DHT22;10657;51.276;6.390;2023-03-11T03:07:49;1.00;99.90
20998;DHT22;10657;51.276;6.390;2023-03-11T03:10:17;1.20;99.90
20998;DHT22;10657;51.276;6.390;2023-03-11T03:12:44;1.20;99.90
20998;DHT22;10657;51.276;6.390;2023-03-11T03:15:11;1.20;99.90
20998;DHT22;10657;51.276;6.390;2023-03-11T03:17:38;1.20;99.90
20998;DHT22;10657;51.276;6.390;2023-03-11T03:20:05;1.20;99.90
20998;DHT22;10657;51.276;6.390;2023-03-11T03:22:37;1.20;99.90
20998;DHT22;10657;51.276;6.390;2023-03-11T03:25:05;1.30;99.90
20998;DHT22;10657;51.276;6.390;2023-03-11T03:27:33;1.30;99.90
20998;DHT22;10657;51.276;6.390;2023-03-11T03:29:59;1.20;99.90
20998;DHT22;10657;51.276;6.390;2023-03-11T03:32:26;1.20;99.90
20998;DHT22;10657;51.276;6.390;2023-03-11T03:34:53;1.10;99.90
20998;DHT22;10657;51.276;6.390;2023-03-11T03:37:25;1.10;99.90
20998;DHT22;10657;51.276;6.390;2023-03-11T03:39:53;1.10;99.90
20998;DHT22;10657;51.276;6.390;2023-03-11T03:42:20;1.10;99.90
20998;DHT22;10657;51.276;6.390;2023-03-11T03:44:47;1.10;99.90
20998;DHT22;10657;51.276;6.390;2023-03-11T03:47:13;1.10;99.90
20998;DHT22;10657;51.276;6.390;2023-03-11T03:49:40;1.10;99.90
20998;DHT22;10657;51.276;6.390;2023-03-11T03:52:07;1.20;99.90
20998;DHT22;10657;51.276;6.390;2023-03-11T03:54:36;1.10;99.90
20998;DHT22;10657;51.276;6.390;2023-03-11T03:57:03;1.10;99.90
20998;DHT22;10657;51.276;6.390;2023-03-11T03:59:30;1.10;99.90
20998;DHT22;10657;51.276;6.390;2023-03-11T04:01:57;0.90;99.90
20998;DHT22;10657;51.276;6.390;2023-03-11T04:04:23;1.00;99.90
20998;DHT22;10657;51.276;6.390;2023-03-11T04:06:50;1.10;99.90
20998;DHT22;10657;51.276;6.390;2023-03-11T04:09:17;1.20;99.90
20998;DHT22;10657;51.276;6.390;2023-03-11T04:11:44;1.20;99.90
20998;DHT22;10657;51.276;6.390;2023-03-11T04:14:11;1.10;99.90
20998;DHT22;10657;51.276;6.390;2023-03-11T04:16:37;1.10;99.90
20998;DHT22;10657;51.276;6.390;2023-03-11T04:19:04;1.10;99.90
20998;DHT22;10657;51.276;6.390;2023-03-11T04:21:31;1.00;99.90
20998;DHT22;10657;51.276;6.390;2023-03-11T04:23:58;1.20;99.90
20998;DHT22;10657;51.276;6.390;2023-03-11T04:26:25;1.20;99.90
20998;DHT22;10657;51.276;6.390;2023-03-11T04:28:52;1.20;99.90
20998;DHT22;10657;51.276;6.390;2023-03-11T04:31:18;1.10;99.90
20998;DHT22;10657;51.276;6.390;2023-03-11T04:33:45;1.10;99.90
20998;DHT22;10657;51.276;6.390;2023-03-11T04:36:12;1.10;99.90
20998;DHT22;10657;51.276;6.390;2023-03-11T04:38:38;1.10;99.90
20998;DHT22;10657;51.276;6.390;2023-03-11T04:41:06;1.00;99.90
20998;DHT22;10657;51.276;6.390;2023-03-11T04:43:33;1.00;99.90
20998;DHT22;10657;51.276;6.390;2023-03-11T04:45:59;1.10;99.90
20998;DHT22;10657;51.276;6.390;2023-03-11T04:48:26;1.10;99.90
20998;DHT22;10657;51.276;6.390;2023-03-11T04:50:53;1.10;99.90
20998;DHT22;10657;51.276;6.390;2023-03-11T04:53:21;1.20;99.90
20998;DHT22;10657;51.276;6.390;2023-03-11T04:55:48;1.30;99.90
20998;DHT22;10657;51.276;6.390;2023-03-11T04:58:16;1.20;99.90
20998;DHT22;10657;51.276;6.390;2023-03-11T05:00:42;1.10;99.90
20998;DHT22;10657;51.276;6.390;2023-03-11T05:03:09;1.10;99.90
20998;DHT22;10657;51.276;6.390;2023-03-11T05:05:36;1.10;99.90
20998;DHT22;10657;51.276;6.390;2023-03-11T05:08:03;1.10;99.90
20998;DHT22;10657;51.276;6.390;2023-03-11T05:10:29;1.10;99.90
20998;DHT22;10657;51.276;6.390;2023-03-11T05:12:57;1.10;99.90
20998;DHT22;10657;51.276;6.390;2023-03-11T05:15:24;1.30;99.90
20998;DHT22;10657;51.276;6.390;2023-03-11T05:17:51;1.30;99.90
20998;DHT22;10657;51.276;6.390;2023-03-11T05:20:17;1.10;99.90
20998;DHT22;10657;51.276;6.390;2023-03-11T05:22:44;1.20;99.90
20998;DHT22;10657;51.276;6.390;2023-03-11T05:25:11;1.30;99.90
20998;DHT22;10657;51.276;6.390;2023-03-11T05:27:37;1.30;99.90
20998;DHT22;10657;51.276;6.390;2023-03-11T05:30:04;1.40;99.90
20998;DHT22;10657;51.276;6.390;2023-03-11T05:32:31;1.40;99.90
20998;DHT22;10657;51.276;6.390;2023-03-11T05:34:58;1.40;99.90
20998;DHT22;10657;51.276;6.390;2023-03-11T05:37:25;1.40;99.90
20998;DHT22;10657;51.276;6.390;2023-03-11T05:39:51;1.10;99.90
20998;DHT22;10657;51.276;6.390;2023-03-11T05:42:18;1.20;99.90
20998;DHT22;10657;51.276;6.390;2023-03-11T05:44:47;1.20;99.90
20998;DHT22;10657;51.276;6.390;2023-03-11T05:47:15;1.30;99.90
20998;DHT22;10657;51.276;6.390;2023-03-11T05:49:42;1.30;99.90
20998;DHT22;10657;51.276;6.390;2023-03-11T05:52:09;1.30;99.90
20998;DHT22;10657;51.276;6.390;2023-03-11T05:54:35;1.30;99.90
20998;DHT22;10657;51.276;6.390;2023-03-11T05:57:02;1.20;99.90
20998;DHT22;10657;51.276;6.390;2023-03-11T05:59:29;1.10;99.90
20998;DHT22;10657;51.276;6.390;2023-03-11T06:01:57;1.10;99.90
20998;DHT22;10657;51.276;6.390;2023-03-11T06:04:24;1.10;99.90
20998;DHT22;10657;51.276;6.390;2023-03-11T06:06:51;1.20;99.90
20998;DHT22;10657;51.276;6.390;2023-03-11T06:09:17;1.00;99.90
20998;DHT22;10657;51.276;6.390;2023-03-11T06:11:44;0.90;99.90
20998;DHT22;10657;51.276;6.390;2023-03-11T06:14:12;1.00;99.90
20998;DHT22;10657;51.276;6.390;2023-03-11T06:16:40;1.00;99.90
20998;DHT22;10657;51.276;6.390;2023-03-11T06:19:07;1.10;99.90
20998;DHT22;10657;51.276;6.390;2023-03-11T06:21:34;1.10;99.90
20998;DHT22;10657;51.276;6.390;2023-03-11T06:24:01;1.10;99.90
20998;DHT22;10657;51.276;6.390;2023-03-11T06:26:27;1.10;99.90
20998;DHT22;10657;51.276;6.390;2023-03-11T06:28:54;1.00;99.90
20998;DHT22;10657;51.276;6.390;2023-03-11T06:31:23;1.00;99.90
20998;DHT22;10657;51.276;6.390;2023-03-11T06:33:51;0.90;99.90
20998;DHT22;10657;51.276;6.390;2023-03-11T06:36:18;0.80;99.90
20998;DHT22;10657;51.276;6.390;2023-03-11T06:38:45;0.80;99.90
20998;DHT22;10657;51.276;6.390;2023-03-11T06:41:12;0.90;99.90
20998;DHT22;10657;51.276;6.390;2023-03-11T06:43:38;0.90;99.90
20998;DHT22;10657;51.276;6.390;2023-03-11T06:46:10;0.90;99.90
20998;DHT22;10657;51.276;6.390;2023-03-11T06:48:37;0.90;99.90
20998;DHT22;10657;51.276;6.390;2023-03-11T06:51:04;0.90;99.90
20998;DHT22;10657;51.276;6.390;2023-03-11T06:53:31;1.10;99.90
20998;DHT22;10657;51.276;6.390;2023-03-11T06:56:05;0.90;99.90
20998;DHT22;10657;51.276;6.390;2023-03-11T06:58:33;1.00;99.90
20998;DHT22;10657;51.276;6.390;2023-03-11T07:01:05;1.00;99.90
20998;DHT22;10657;51.276;6.390;2023-03-11T07:03:32;1.00;99.90
20998;DHT22;10657;51.276;6.390;2023-03-11T07:05:59;1.00;99.90
20998;DHT22;10657;51.276;6.390;2023-03-11T07:08:26;1.00;99.90
20998;DHT22;10657;51.276;6.390;2023-03-11T07:11:04;1.00;99.90
20998;DHT22;10657;51.276;6.390;2023-03-11T07:13:31;0.90;99.90
20998;DHT22;10657;51.276;6.390;2023-03-11T07:16:06;1.00;99.90
20998;DHT22;10657;51.276;6.390;2023-03-11T07:18:34;1.00;99.90
20998;DHT22;10657;51.276;6.390;2023-03-11T07:21:03;1.00;99.90
20998;DHT22;10657;51.276;6.390;2023-03-11T07:23:30;1.10;99.90
20998;DHT22;10657;51.276;6.390;2023-03-11T07:25:56;1.10;99.90
20998;DHT22;10657;51.276;6.390;2023-03-11T07:28:25;1.10;99.90
20998;DHT22;10657;51.276;6.390;2023-03-11T07:30:52;1.20;99.90
20998;DHT22;10657;51.276;6.390;2023-03-11T07:33:19;1.20;99.90
20998;DHT22;10657;51.276;6.390;2023-03-11T07:35:46;1.20;99.90
20998;DHT22;10657;51.276;6.390;2023-03-11T07:38:15;1.20;99.90
20998;DHT22;10657;51.276;6.390;2023-03-11T07:40:43;1.40;99.90
20998;DHT22;10657;51.276;6.390;2023-03-11T07:43:10;1.40;99.90
20998;DHT22;10657;51.276;6.390;2023-03-11T07:45:37;1.40;99.90
20998;DHT22;10657;51.276;6.390;2023-03-11T07:48:04;1.50;99.90
20998;DHT22;10657;51.276;6.390;2023-03-11T07:50:30;1.60;99.90
20998;DHT22;10657;51.276;6.390;2023-03-11T07:52:57;1.60;99.90
20998;DHT22;10657;51.276;6.390;2023-03-11T07:55:24;1.50;99.90
20998;DHT22;10657;51.276;6.390;2023-03-11T07:57:50;1.60;99.90
20998;DHT22;10657;51.276;6.390;2023-03-11T08:00:17;1.70;99.90
20998;DHT22;10657;51.276;6.390;2023-03-11T08:02:44;1.70;99.90
20998;DHT22;10657;51.276;6.390;2023-03-11T08:05:11;1.70;99.90
20998;DHT22;10657;51.276;6.390;2023-03-11T08:07:38;1.70;99.90
20998;DHT22;10657;51.276;6.390;2023-03-11T08:10:05;1.80;99.90
20998;DHT22;10657;51.276;6.390;2023-03-11T08:12:32;1.70;99.90
20998;DHT22;10657;51.276;6.390;2023-03-11T08:14:59;1.80;99.90
20998;DHT22;10657;51.276;6.390;2023-03-11T08:17:25;1.80;99.90
20998;DHT22;10657;51.276;6.390;2023-03-11T08:19:52;1.90;99.90
20998;DHT22;10657;51.276;6.390;2023-03-11T08:22:19;2.00;99.90
20998;DHT22;10657;51.276;6.390;2023-03-11T08:24:50;2.00;99.90
20998;DHT22;10657;51.276;6.390;2023-03-11T08:27:17;2.00;99.90
20998;DHT22;10657;51.276;6.390;2023-03-11T08:29:44;2.00;99.90
20998;DHT22;10657;51.276;6.390;2023-03-11T08:32:10;2.10;99.90
20998;DHT22;10657;51.276;6.390;2023-03-11T08:34:37;2.10;99.90
20998;DHT22;10657;51.276;6.390;2023-03-11T08:37:05;2.20;99.90
20998;DHT22;10657;51.276;6.390;2023-03-11T08:39:32;2.20;99.90
20998;DHT22;10657;51.276;6.390;2023-03-11T08:41:58;2.30;99.90
20998;DHT22;10657;51.276;6.390;2023-03-11T08:44:25;2.30;99.90
20998;DHT22;10657;51.276;6.390;2023-03-11T08:46:52;2.30;99.90
20998;DHT22;10657;51.276;6.390;2023-03-11T08:49:19;2.50;99.90
20998;DHT22;10657;51.276;6.390;2023-03-11T08:51:45;2.50;99.90
20998;DHT22;10657;51.276;6.390;2023-03-11T08:54:12;2.50;99.90
20998;DHT22;10657;51.276;6.390;2023-03-11T08:56:39;2.60;99.90
20998;DHT22;10657;51.276;6.390;2023-03-11T08:59:05;2.60;99.90
20998;DHT22;10657;51.276;6.390;2023-03-11T09:01:33;2.70;99.90
20998;DHT22;10657;51.276;6.390;2023-03-11T09:04:00;2.80;99.90
20998;DHT22;10657;51.276;6.390;2023-03-11T09:06:27;2.80;99.90
20998;DHT22;10657;51.276;6.390;2023-03-11T09:08:56;2.80;99.90
20998;DHT22;10657;51.276;6.390;2023-03-11T09:11:23;2.90;99.90
20998;DHT22;10657;51.276;6.390;2023-03-11T09:13:50;2.90;99.90
20998;DHT22;10657;51.276;6.390;2023-03-11T09:16:21;2.90;99.90
20998;DHT22;10657;51.276;6.390;2023-03-11T09:18:48;3.10;99.90
20998;DHT22;10657;51.276;6.390;2023-03-11T09:21:15;3.30;99.90
20998;DHT22;10657;51.276;6.390;2023-03-11T09:23:42;3.30;99.90
20998;DHT22;10657;51.276;6.390;2023-03-11T09:26:10;3.30;99.90
20998;DHT22;10657;51.276;6.390;2023-03-11T09:28:38;3.40;99.90
20998;DHT22;10657;51.276;6.390;2023-03-11T09:31:04;3.20;99.90
20998;DHT22;10657;51.276;6.390;2023-03-11T09:33:36;3.30;99.90
20998;DHT22;10657;51.276;6.390;2023-03-11T09:36:03;3.40;99.90
20998;DHT22;10657;51.276;6.390;2023-03-11T09:38:30;3.40;99.90
20998;DHT22;10657;51.276;6.390;2023-03-11T09:43:37;3.40;99.90
20998;DHT22;10657;51.276;6.390;2023-03-11T09:52:15;3.60;99.90
20998;DHT22;10657;51.276;6.390;2023-03-11T09:54:45;3.50;99.90
20998;DHT22;10657;51.276;6.390;2023-03-11T09:57:25;3.50;99.90
20998;DHT22;10657;51.276;6.390;2023-03-11T09:59:54;3.50;99.90
20998;DHT22;10657;51.276;6.390;2023-03-11T10:02:23;3.70;99.90
20998;DHT22;10657;51.276;6.390;2023-03-11T10:05:08;3.90;99.90
20998;DHT22;10657;51.276;6.390;2023-03-11T10:07:46;3.90;99.90
20998;DHT22;10657;51.276;6.390;2023-03-11T10:10:15;4.10;99.90
20998;DHT22;10657;51.276;6.390;2023-03-11T10:13:16;4.10;99.90
20998;DHT22;10657;51.276;6.390;2023-03-11T10:16:23;4.30;99.90
20998;DHT22;10657;51.276;6.390;2023-03-11T10:22:11;4.10;99.90
20998;DHT22;10657;51.276;6.390;2023-03-11T10:27:48;4.20;99.90
20998;DHT22;10657;51.276;6.390;2023-03-11T10:30:26;4.30;99.90
20998;DHT22;10657;51.276;6.390;2023-03-11T10:33:01;4.50;99.90
20998;DHT22;10657;51.276;6.390;2023-03-11T10:35:40;4.50;99.90
20998;DHT22;10657;51.276;6.390;2023-03-11T10:38:20;4.40;99.90
20998;DHT22;10657;51.276;6.390;2023-03-11T10:40:50;4.60;99.90
20998;DHT22;10657;51.276;6.390;2023-03-11T10:43:32;4.80;99.90
20998;DHT22;10657;51.276;6.390;2023-03-11T10:46:04;5.00;99.90
20998;DHT22;10657;51.276;6.390;2023-03-11T10:48:33;4.70;99.90
20998;DHT22;10657;51.276;6.390;2023-03-11T10:53:46;4.70;99.90
20998;DHT22;10657;51.276;6.390;2023-03-11T10:56:28;4.80;99.90
20998;DHT22;10657;51.276;6.390;2023-03-11T10:58:56;5.20;99.90
20998;DHT22;10657;51.276;6.390;2023-03-11T11:01:23;5.20;99.90
20998;DHT22;10657;51.276;6.390;2023-03-11T11:03:52;5.30;99.90
20998;DHT22;10657;51.276;6.390;2023-03-11T11:06:33;5.50;99.90
20998;DHT22;10657;51.276;6.390;2023-03-11T11:09:20;5.40;99.90
20998;DHT22;10657;51.276;6.390;2023-03-11T11:12:19;5.20;99.90
20998;DHT22;10657;51.276;6.390;2023-03-11T11:14:48;5.30;99.90
20998;DHT22;10657;51.276;6.390;2023-03-11T11:17:23;5.30;99.90
20998;DHT22;10657;51.276;6.390;2023-03-11T11:19:51;5.20;99.90
20998;DHT22;10657;51.276;6.390;2023-03-11T11:22:20;5.10;99.90
20998;DHT22;10657;51.276;6.390;2023-03-11T11:24:49;5.10;99.90
20998;DHT22;10657;51.276;6.390;2023-03-11T11:27:24;5.20;99.90
20998;DHT22;10657;51.276;6.390;2023-03-11T11:32:36;5.30;99.90
20998;DHT22;10657;51.276;6.390;2023-03-11T11:37:35;5.40;99.90
20998;DHT22;10657;51.276;6.390;2023-03-11T11:42:46;5.50;99.90
20998;DHT22;10657;51.276;6.390;2023-03-11T11:45:44;5.60;99.90
20998;DHT22;10657;51.276;6.390;2023-03-11T11:48:25;5.70;99.90
20998;DHT22;10657;51.276;6.390;2023-03-11T11:50:59;5.60;99.90
20998;DHT22;10657;51.276;6.390;2023-03-11T11:53:43;5.40;99.90
20998;DHT22;10657;51.276;6.390;2023-03-11T11:56:11;5.30;99.90
20998;DHT22;10657;51.276;6.390;2023-03-11T11:58:39;5.40;99.90
20998;DHT22;10657;51.276;6.390;2023-03-11T12:01:15;5.40;99.90
20998;DHT22;10657;51.276;6.390;2023-03-11T12:06:44;5.60;99.90
20998;DHT22;10657;51.276;6.390;2023-03-11T12:09:38;5.70;99.90
20998;DHT22;10657;51.276;6.390;2023-03-11T12:14:55;5.90;99.90
20998;DHT22;10657;51.276;6.390;2023-03-11T12:17:25;5.80;99.90
20998;DHT22;10657;51.276;6.390;2023-03-11T12:25:42;5.70;99.90
20998;DHT22;10657;51.276;6.390;2023-03-11T12:30:54;5.70;99.90
20998;DHT22;10657;51.276;6.390;2023-03-11T12:33:57;5.80;99.90
20998;DHT22;10657;51.276;6.390;2023-03-11T12:36:36;6.00;99.90
20998;DHT22;10657;51.276;6.390;2023-03-11T12:39:06;6.00;99.90
20998;DHT22;10657;51.276;6.390;2023-03-11T12:41:35;5.70;99.90
20998;DHT22;10657;51.276;6.390;2023-03-11T12:49:38;6.00;99.90
20998;DHT22;10657;51.276;6.390;2023-03-11T12:54:40;6.30;99.90
20998;DHT22;10657;51.276;6.390;2023-03-11T13:02:44;6.50;99.90
20998;DHT22;10657;51.276;6.390;2023-03-11T13:08:04;6.90;99.90
20998;DHT22;10657;51.276;6.390;2023-03-11T13:10:43;7.00;99.90
20998;DHT22;10657;51.276;6.390;2023-03-11T13:18:46;6.90;99.90
20998;DHT22;10657;51.276;6.390;2023-03-11T13:21:36;7.00;99.90
20998;DHT22;10657;51.276;6.390;2023-03-11T13:35:39;8.10;99.90
20998;DHT22;10657;51.276;6.390;2023-03-11T13:40:49;8.50;99.90
20998;DHT22;10657;51.276;6.390;2023-03-11T13:43:22;8.60;99.90
20998;DHT22;10657;51.276;6.390;2023-03-11T13:46:00;8.40;99.60
20998;DHT22;10657;51.276;6.390;2023-03-11T13:51:13;8.70;99.90
20998;DHT22;10657;51.276;6.390;2023-03-11T13:53:48;8.60;99.50
20998;DHT22;10657;51.276;6.390;2023-03-11T13:56:38;8.90;98.60
20998;DHT22;10657;51.276;6.390;2023-03-11T13:59:26;8.70;96.90
20998;DHT22;10657;51.276;6.390;2023-03-11T14:01:56;8.90;99.70
20998;DHT22;10657;51.276;6.390;2023-03-11T14:04:34;9.40;99.90
20998;DHT22;10657;51.276;6.390;2023-03-11T14:07:21;9.40;99.00
20998;DHT22;10657;51.276;6.390;2023-03-11T14:09:49;9.00;97.30
20998;DHT22;10657;51.276;6.390;2023-03-11T14:12:15;8.90;97.30
20998;DHT22;10657;51.276;6.390;2023-03-11T14:14:55;8.60;96.50
20998;DHT22;10657;51.276;6.390;2023-03-11T14:17:24;9.20;96.90
20998;DHT22;10657;51.276;6.390;2023-03-11T14:20:05;9.10;95.30
20998;DHT22;10657;51.276;6.390;2023-03-11T14:22:36;9.20;98.30
20998;DHT22;10657;51.276;6.390;2023-03-11T14:25:07;9.40;96.40
20998;DHT22;10657;51.276;6.390;2023-03-11T14:27:35;9.70;96.10
20998;DHT22;10657;51.276;6.390;2023-03-11T14:30:04;9.50;95.00
20998;DHT22;10657;51.276;6.390;2023-03-11T14:32:33;10.00;94.90
20998;DHT22;10657;51.276;6.390;2023-03-11T14:35:00;9.80;94.20
20998;DHT22;10657;51.276;6.390;2023-03-11T14:37:36;9.70;94.90
20998;DHT22;10657;51.276;6.390;2023-03-11T14:40:27;9.40;94.40
20998;DHT22;10657;51.276;6.390;2023-03-11T14:42:53;9.70;94.90
20998;DHT22;10657;51.276;6.390;2023-03-11T14:45:26;9.00;93.40
20998;DHT22;10657;51.276;6.390;2023-03-11T14:50:46;9.30;94.80
20998;DHT22;10657;51.276;6.390;2023-03-11T14:53:25;9.70;93.80
20998;DHT22;10657;51.276;6.390;2023-03-11T14:56:11;9.20;93.10
20998;DHT22;10657;51.276;6.390;2023-03-11T14:58:44;9.80;93.60
20998;DHT22;10657;51.276;6.390;2023-03-11T15:01:24;9.70;93.00
20998;DHT22;10657;51.276;6.390;2023-03-11T15:03:53;9.70;92.20
20998;DHT22;10657;51.276;6.390;2023-03-11T15:06:25;9.50;91.70
20998;DHT22;10657;51.276;6.390;2023-03-11T15:09:14;9.60;93.00
20998;DHT22;10657;51.276;6.390;2023-03-11T15:11:58;9.80;93.30
20998;DHT22;10657;51.276;6.390;2023-03-11T15:14:31;9.90;92.70
20998;DHT22;10657;51.276;6.390;2023-03-11T15:19:58;9.70;92.50
20998;DHT22;10657;51.276;6.390;2023-03-11T15:22:33;9.90;92.50
20998;DHT22;10657;51.276;6.390;2023-03-11T15:25:02;10.10;93.00
20998;DHT22;10657;51.276;6.390;2023-03-11T15:27:35;10.10;92.00
20998;DHT22;10657;51.276;6.390;2023-03-11T15:30:22;10.00;91.40
20998;DHT22;10657;51.276;6.390;2023-03-11T15:32:49;9.60;91.30
20998;DHT22;10657;51.276;6.390;2023-03-11T15:38:10;9.90;92.10
20998;DHT22;10657;51.276;6.390;2023-03-11T15:40:37;10.30;92.40
20998;DHT22;10657;51.276;6.390;2023-03-11T15:45:41;10.00;91.90
20998;DHT22;10657;51.276;6.390;2023-03-11T15:48:12;10.10;91.80
20998;DHT22;10657;51.276;6.390;2023-03-11T15:50:52;10.10;91.60
20998;DHT22;10657;51.276;6.390;2023-03-11T15:53:21;10.50;92.80
20998;DHT22;10657;51.276;6.390;2023-03-11T15:55:48;10.60;92.80
20998;DHT22;10657;51.276;6.390;2023-03-11T15:58:17;10.50;91.10
20998;DHT22;10657;51.276;6.390;2023-03-11T16:00:49;10.50;91.80
20998;DHT22;10657;51.276;6.390;2023-03-11T16:03:18;10.60;90.80
20998;DHT22;10657;51.276;6.390;2023-03-11T16:05:45;10.50;89.90
20998;DHT22;10657;51.276;6.390;2023-03-11T16:08:12;11.00;91.20
20998;DHT22;10657;51.276;6.390;2023-03-11T16:10:39;11.20;90.80
20998;DHT22;10657;51.276;6.390;2023-03-11T16:13:08;11.30;90.60
20998;DHT22;10657;51.276;6.390;2023-03-11T16:15:36;11.20;90.40
20998;DHT22;10657;51.276;6.390;2023-03-11T16:18:05;11.30;90.40
20998;DHT22;10657;51.276;6.390;2023-03-11T16:20:39;11.30;89.70
20998;DHT22;10657;51.276;6.390;2023-03-11T16:23:11;10.90;90.20
20998;DHT22;10657;51.276;6.390;2023-03-11T16:25:42;11.10;90.20
20998;DHT22;10657;51.276;6.390;2023-03-11T16:28:13;11.20;90.40
20998;DHT22;10657;51.276;6.390;2023-03-11T16:30:40;10.90;90.00
20998;DHT22;10657;51.276;6.390;2023-03-11T16:33:07;11.20;89.40
20998;DHT22;10657;51.276;6.390;2023-03-11T16:35:33;11.20;89.30
20998;DHT22;10657;51.276;6.390;2023-03-11T16:38:00;11.40;89.40
20998;DHT22;10657;51.276;6.390;2023-03-11T16:40:28;11.50;90.60
20998;DHT22;10657;51.276;6.390;2023-03-11T16:43:06;11.40;88.70
20998;DHT22;10657;51.276;6.390;2023-03-11T16:45:33;10.80;88.20
20998;DHT22;10657;51.276;6.390;2023-03-11T16:48:00;10.30;88.40
20998;DHT22;10657;51.276;6.390;2023-03-11T16:50:27;10.10;88.10
20998;DHT22;10657;51.276;6.390;2023-03-11T16:52:55;10.00;87.90
20998;DHT22;10657;51.276;6.390;2023-03-11T16:55:23;10.00;87.50
20998;DHT22;10657;51.276;6.390;2023-03-11T16:57:50;9.70;89.50
20998;DHT22;10657;51.276;6.390;2023-03-11T17:00:17;9.50;88.60
20998;DHT22;10657;51.276;6.390;2023-03-11T17:02:44;9.30;90.00
20998;DHT22;10657;51.276;6.390;2023-03-11T17:05:10;9.20;90.60
20998;DHT22;10657;51.276;6.390;2023-03-11T17:07:37;8.80;91.10
20998;DHT22;10657;51.276;6.390;2023-03-11T17:10:06;8.70;91.10
20998;DHT22;10657;51.276;6.390;2023-03-11T17:12:36;8.80;91.40
20998;DHT22;10657;51.276;6.390;2023-03-11T17:15:04;8.40;91.50
20998;DHT22;10657;51.276;6.390;2023-03-11T17:17:31;8.30;92.20
20998;DHT22;10657;51.276;6.390;2023-03-11T17:19:58;8.30;92.20
20998;DHT22;10657;51.276;6.390;2023-03-11T17:22:24;8.20;92.50
20998;DHT22;10657;51.276;6.390;2023-03-11T17:24:51;8.20;92.90
20998;DHT22;10657;51.276;6.390;2023-03-11T17:27:18;8.20;92.60
20998;DHT22;10657;51.276;6.390;2023-03-11T17:29:44;8.00;92.90
20998;DHT22;10657;51.276;6.390;2023-03-11T17:32:12;8.20;93.00
20998;DHT22;10657;51.276;6.390;2023-03-11T17:34:43;8.10;93.30
20998;DHT22;10657;51.276;6.390;2023-03-11T17:37:09;8.00;93.60